sensor_id;sensor_type;location;lat;lon;timestamp;pressure;altitude;pressure_sealevel;temperature;humidity
63665;BME280;49820;33.966;73.390;2023-08-08T02:44:44;78172.69;;;23.26;67.00
63665;BME280;49820;33.966;73.390;2023-08-08T02:47:14;78174.31;;;23.32;62.90
63665;BME280;49820;33.966;73.390;2023-08-08T02:49:44;78188.81;;;23.75;64.89
63665;BME280;49820;33.966;73.390;2023-08-08T02:52:14;78178.53;;;23.76;63.61
63665;BME280;49820;33.966;73.390;2023-08-08T02:54:46;78182.16;;;24.00;63.34
63665;BME280;49820;33.966;73.390;2023-08-08T02:57:15;78169.94;;;23.90;77.14
63665;BME280;49820;33.966;73.390;2023-08-08T02:59:44;78175.88;;;24.38;78.38
63665;BME280;49820;33.966;73.390;2023-08-08T03:02:14;78182.66;;;24.82;83.81
63665;BME280;49820;33.966;73.390;2023-08-08T03:04:48;78178.81;;;24.70;64.66
63665;BME280;49820;33.966;73.390;2023-08-08T03:07:18;78183.69;;;25.04;64.38
63665;BME280;49820;33.966;73.390;2023-08-08T03:09:47;78166.91;;;25.43;80.17
63665;BME280;49820;33.966;73.390;2023-08-08T03:12:16;78179.31;;;25.59;72.09
63665;BME280;49820;33.966;73.390;2023-08-08T03:14:46;78184.44;;;25.63;53.99
63665;BME280;49820;33.966;73.390;2023-08-08T03:17:15;78186.72;;;25.61;62.75
63665;BME280;49820;33.966;73.390;2023-08-08T03:19:45;78174.31;;;24.84;57.08
63665;BME280;49820;33.966;73.390;2023-08-08T03:22:15;78184.91;;;25.48;54.23
63665;BME280;49820;33.966;73.390;2023-08-08T03:24:44;78183.16;;;25.45;60.33
63665;BME280;49820;33.966;73.390;2023-08-08T03:27:13;78172.84;;;25.71;57.14
63665;BME280;49820;33.966;73.390;2023-08-08T03:29:52;78185.47;;;26.09;61.58
63665;BME280;49820;33.966;73.390;2023-08-08T03:32:22;78183.97;;;26.19;51.48
63665;BME280;49820;33.966;73.390;2023-08-08T03:34:52;78183.00;;;26.22;51.34
63665;BME280;49820;33.966;73.390;2023-08-08T03:37:21;78194.50;;;25.99;51.13
63665;BME280;49820;33.966;73.390;2023-08-08T03:39:50;78190.59;;;26.13;51.32
63665;BME280;49820;33.966;73.390;2023-08-08T03:42:20;78194.34;;;26.01;52.17
63665;BME280;49820;33.966;73.390;2023-08-08T03:44:48;78187.84;;;26.13;56.11
63665;BME280;49820;33.966;73.390;2023-08-08T03:47:18;78190.03;;;26.37;52.18
63665;BME280;49820;33.966;73.390;2023-08-08T03:49:50;78189.81;;;26.56;53.15
63665;BME280;49820;33.966;73.390;2023-08-08T03:52:24;78203.84;;;26.84;56.58
63665;BME280;49820;33.966;73.390;2023-08-08T03:54:53;78188.16;;;27.24;63.50
63665;BME280;49820;33.966;73.390;2023-08-08T03:57:22;78184.06;;;27.31;54.01
63665;BME280;49820;33.966;73.390;2023-08-08T03:59:51;78191.22;;;27.20;50.95
63665;BME280;49820;33.966;73.390;2023-08-08T04:02:21;78213.41;;;27.09;53.46
63665;BME280;49820;33.966;73.390;2023-08-08T04:04:52;78192.34;;;27.23;61.58
63665;BME280;49820;33.966;73.390;2023-08-08T04:07:23;78210.53;;;27.50;52.43
63665;BME280;49820;33.966;73.390;2023-08-08T04:09:54;78211.53;;;27.47;56.90
63665;BME280;49820;33.966;73.390;2023-08-08T04:12:25;78209.94;;;27.17;53.02
63665;BME280;49820;33.966;73.390;2023-08-08T04:14:55;78209.63;;;27.21;53.10
63665;BME280;49820;33.966;73.390;2023-08-08T04:17:24;78210.53;;;27.50;52.65
63665;BME280;49820;33.966;73.390;2023-08-08T04:19:54;78207.59;;;27.61;57.82
63665;BME280;49820;33.966;73.390;2023-08-08T04:22:23;78192.47;;;27.53;51.60
63665;BME280;49820;33.966;73.390;2023-08-08T04:25:04;78212.91;;;27.39;53.13
63665;BME280;49820;33.966;73.390;2023-08-08T04:27:34;78214.28;;;27.23;52.99
63665;BME280;49820;33.966;73.390;2023-08-08T04:30:07;78212.41;;;27.37;56.49
63665;BME280;49820;33.966;73.390;2023-08-08T04:32:37;78213.16;;;27.44;54.68
63665;BME280;49820;33.966;73.390;2023-08-08T04:35:07;78223.28;;;27.78;53.75
63665;BME280;49820;33.966;73.390;2023-08-08T04:37:39;78225.72;;;27.73;53.72
63665;BME280;49820;33.966;73.390;2023-08-08T04:40:12;78232.09;;;27.63;53.19
63665;BME280;49820;33.966;73.390;2023-08-08T04:43:09;78220.56;;;27.54;51.09
63665;BME280;49820;33.966;73.390;2023-08-08T04:45:55;78216.09;;;27.65;53.14
63665;BME280;49820;33.966;73.390;2023-08-08T04:49:03;78221.19;;;27.93;51.50
63665;BME280;49820;33.966;73.390;2023-08-08T04:51:40;78229.09;;;27.73;51.23
63665;BME280;49820;33.966;73.390;2023-08-08T04:54:23;78231.63;;;27.84;52.46
63665;BME280;49820;33.966;73.390;2023-08-08T04:56:58;78223.75;;;28.19;57.84
63665;BME280;49820;33.966;73.390;2023-08-08T04:59:54;78232.03;;;28.10;51.70
63665;BME280;49820;33.966;73.390;2023-08-08T05:02:56;78217.22;;;28.23;53.04
63665;BME280;49820;33.966;73.390;2023-08-08T05:05:28;78225.31;;;28.70;53.40
63665;BME280;49820;33.966;73.390;2023-08-08T05:08:00;78224.50;;;28.57;52.35
63665;BME280;49820;33.966;73.390;2023-08-08T05:10:30;78223.94;;;28.47;59.62
63665;BME280;49820;33.966;73.390;2023-08-08T05:13:05;78230.97;;;28.23;52.35
63665;BME280;49820;33.966;73.390;2023-08-08T05:15:34;78238.78;;;28.20;51.29
63665;BME280;49820;33.966;73.390;2023-08-08T05:18:04;78236.84;;;28.19;61.92
63665;BME280;49820;33.966;73.390;2023-08-08T05:20:33;78227.84;;;28.12;63.64
63665;BME280;49820;33.966;73.390;2023-08-08T05:23:02;78238.81;;;27.73;66.35
63665;BME280;49820;33.966;73.390;2023-08-08T05:25:31;78222.81;;;27.51;62.67
63665;BME280;49820;33.966;73.390;2023-08-08T05:28:00;78239.84;;;27.84;58.72
63665;BME280;49820;33.966;73.390;2023-08-08T05:30:29;78238.16;;;27.48;63.18
63665;BME280;49820;33.966;73.390;2023-08-08T05:33:01;78227.06;;;27.42;59.77
63665;BME280;49820;33.966;73.390;2023-08-08T05:35:30;78237.94;;;27.59;62.30
63665;BME280;49820;33.966;73.390;2023-08-08T05:38:02;78240.13;;;27.41;64.79
63665;BME280;49820;33.966;73.390;2023-08-08T05:40:36;78240.03;;;27.82;58.65
63665;BME280;49820;33.966;73.390;2023-08-08T05:43:10;78248.78;;;26.96;61.75
63665;BME280;49820;33.966;73.390;2023-08-08T05:45:47;78238.72;;;26.28;70.96
63665;BME280;49820;33.966;73.390;2023-08-08T05:48:17;78241.34;;;27.03;63.45
63665;BME280;49820;33.966;73.390;2023-08-08T05:50:46;78245.84;;;26.66;62.54
63665;BME280;49820;33.966;73.390;2023-08-08T05:53:15;78245.59;;;25.77;65.93
63665;BME280;49820;33.966;73.390;2023-08-08T05:55:44;78245.91;;;25.30;67.30
63665;BME280;49820;33.966;73.390;2023-08-08T05:58:14;78242.63;;;24.84;68.79
63665;BME280;49820;33.966;73.390;2023-08-08T06:00:54;78252.81;;;25.12;76.25
63665;BME280;49820;33.966;73.390;2023-08-08T06:03:25;78252.53;;;26.84;66.56
63665;BME280;49820;33.966;73.390;2023-08-08T06:05:54;78243.88;;;27.85;64.91
63665;BME280;49820;33.966;73.390;2023-08-08T06:08:23;78230.16;;;27.85;70.50
63665;BME280;49820;33.966;73.390;2023-08-08T06:10:53;78245.84;;;28.56;62.99
63665;BME280;49820;33.966;73.390;2023-08-08T06:13:22;78229.44;;;28.63;63.72
63665;BME280;49820;33.966;73.390;2023-08-08T06:15:51;78234.63;;;29.34;64.96
63665;BME280;49820;33.966;73.390;2023-08-08T06:18:28;78239.59;;;28.49;64.91
63665;BME280;49820;33.966;73.390;2023-08-08T06:20:58;78248.66;;;29.23;58.23
63665;BME280;49820;33.966;73.390;2023-08-08T06:23:27;78247.09;;;29.70;55.70
63665;BME280;49820;33.966;73.390;2023-08-08T06:25:57;78252.50;;;29.79;53.19
63665;BME280;49820;33.966;73.390;2023-08-08T06:28:26;78252.44;;;30.59;57.14
63665;BME280;49820;33.966;73.390;2023-08-08T06:30:57;78248.19;;;30.10;66.71
63665;BME280;49820;33.966;73.390;2023-08-08T06:33:26;78251.81;;;30.59;56.73
63665;BME280;49820;33.966;73.390;2023-08-08T06:35:59;78251.16;;;30.58;55.62
63665;BME280;49820;33.966;73.390;2023-08-08T06:38:27;78260.13;;;29.26;60.88
63665;BME280;49820;33.966;73.390;2023-08-08T06:40:57;78237.72;;;31.04;62.42
63665;BME280;49820;33.966;73.390;2023-08-08T06:43:26;78246.00;;;31.04;69.33
63665;BME280;49820;33.966;73.390;2023-08-08T06:45:59;78233.50;;;30.27;55.04
63665;BME280;49820;33.966;73.390;2023-08-08T06:48:30;78238.63;;;31.09;54.70
63665;BME280;49820;33.966;73.390;2023-08-08T06:50:59;78249.84;;;30.51;53.73
63665;BME280;49820;33.966;73.390;2023-08-08T06:53:32;78244.63;;;30.62;59.77
63665;BME280;49820;33.966;73.390;2023-08-08T06:56:16;78240.25;;;31.70;61.20
63665;BME280;49820;33.966;73.390;2023-08-08T06:59:00;78247.38;;;31.54;53.23
63665;BME280;49820;33.966;73.390;2023-08-08T07:01:29;78255.38;;;31.07;55.70
63665;BME280;49820;33.966;73.390;2023-08-08T07:03:58;78221.53;;;30.94;51.66
63665;BME280;49820;33.966;73.390;2023-08-08T07:06:29;78245.41;;;30.10;57.11
63665;BME280;49820;33.966;73.390;2023-08-08T07:08:58;78240.25;;;28.65;57.40
63665;BME280;49820;33.966;73.390;2023-08-08T07:11:27;78230.56;;;28.81;58.09
63665;BME280;49820;33.966;73.390;2023-08-08T07:13:58;78230.06;;;29.24;55.85
63665;BME280;49820;33.966;73.390;2023-08-08T07:16:27;78244.97;;;30.29;55.89
63665;BME280;49820;33.966;73.390;2023-08-08T07:18:55;78240.75;;;31.51;66.31
63665;BME280;49820;33.966;73.390;2023-08-08T07:21:26;78232.84;;;31.05;55.70
63665;BME280;49820;33.966;73.390;2023-08-08T07:23:55;78247.34;;;30.55;52.68
63665;BME280;49820;33.966;73.390;2023-08-08T07:26:26;78242.00;;;28.99;62.12
63665;BME280;49820;33.966;73.390;2023-08-08T07:28:56;78250.88;;;30.04;57.54
63665;BME280;49820;33.966;73.390;2023-08-08T07:31:25;78244.53;;;30.05;56.63
63665;BME280;49820;33.966;73.390;2023-08-08T07:33:55;78262.16;;;29.34;57.58
63665;BME280;49820;33.966;73.390;2023-08-08T07:36:28;78256.41;;;28.69;57.80
63665;BME280;49820;33.966;73.390;2023-08-08T07:38:58;78255.91;;;26.93;65.53
63665;BME280;49820;33.966;73.390;2023-08-08T07:41:30;78253.56;;;27.84;62.67
63665;BME280;49820;33.966;73.390;2023-08-08T07:44:02;78247.34;;;28.86;58.94
63665;BME280;49820;33.966;73.390;2023-08-08T07:46:36;78255.59;;;28.16;59.99
63665;BME280;49820;33.966;73.390;2023-08-08T07:49:05;78255.41;;;26.99;66.81
63665;BME280;49820;33.966;73.390;2023-08-08T07:51:35;78251.97;;;25.99;65.56
63665;BME280;49820;33.966;73.390;2023-08-08T07:54:05;78264.25;;;25.66;67.05
63665;BME280;49820;33.966;73.390;2023-08-08T07:56:40;78262.88;;;26.42;65.73
63665;BME280;49820;33.966;73.390;2023-08-08T07:59:14;78248.63;;;25.81;71.56
63665;BME280;49820;33.966;73.390;2023-08-08T08:01:43;78262.16;;;25.66;71.96
63665;BME280;49820;33.966;73.390;2023-08-08T08:04:26;78257.53;;;27.94;74.12
63665;BME280;49820;33.966;73.390;2023-08-08T08:06:55;78241.31;;;28.22;63.36
63665;BME280;49820;33.966;73.390;2023-08-08T08:09:26;78253.63;;;26.95;67.18
63665;BME280;49820;33.966;73.390;2023-08-08T08:11:54;78247.66;;;25.94;74.55
63665;BME280;49820;33.966;73.390;2023-08-08T08:14:25;78266.97;;;25.57;76.21
63665;BME280;49820;33.966;73.390;2023-08-08T08:16:55;78271.31;;;25.28;76.40
63665;BME280;49820;33.966;73.390;2023-08-08T08:19:36;78262.13;;;25.06;77.68
63665;BME280;49820;33.966;73.390;2023-08-08T08:22:42;78264.81;;;24.89;83.65
63665;BME280;49820;33.966;73.390;2023-08-08T08:25:21;78264.75;;;24.54;85.67
63665;BME280;49820;33.966;73.390;2023-08-08T08:27:55;78263.41;;;24.36;91.80
63665;BME280;49820;33.966;73.390;2023-08-08T08:30:25;78256.50;;;24.09;93.68
63665;BME280;49820;33.966;73.390;2023-08-08T08:32:57;78269.31;;;24.30;99.20
63665;BME280;49820;33.966;73.390;2023-08-08T08:35:37;78257.28;;;23.99;100.00
63665;BME280;49820;33.966;73.390;2023-08-08T08:38:10;78257.78;;;24.02;100.00
63665;BME280;49820;33.966;73.390;2023-08-08T08:40:49;78254.88;;;23.67;100.00
63665;BME280;49820;33.966;73.390;2023-08-08T08:43:19;78236.13;;;23.72;100.00
63665;BME280;49820;33.966;73.390;2023-08-08T08:45:52;78272.44;;;25.23;100.00
63665;BME280;49820;33.966;73.390;2023-08-08T08:48:23;78262.78;;;25.24;96.76
63665;BME280;49820;33.966;73.390;2023-08-08T08:50:52;78262.91;;;26.16;91.28
63665;BME280;49820;33.966;73.390;2023-08-08T08:53:22;78260.88;;;26.99;81.89
63665;BME280;49820;33.966;73.390;2023-08-08T08:55:52;78262.94;;;25.91;100.00
63665;BME280;49820;33.966;73.390;2023-08-08T08:58:22;78268.56;;;25.54;97.06
63665;BME280;49820;33.966;73.390;2023-08-08T09:00:53;78273.22;;;24.95;100.00
63665;BME280;49820;33.966;73.390;2023-08-08T09:03:22;78260.81;;;24.34;100.00
63665;BME280;49820;33.966;73.390;2023-08-08T09:05:52;78252.31;;;24.02;100.00
63665;BME280;49820;33.966;73.390;2023-08-08T09:08:23;78258.72;;;23.98;100.00
63665;BME280;49820;33.966;73.390;2023-08-08T09:10:52;78271.22;;;23.95;100.00
63665;BME280;49820;33.966;73.390;2023-08-08T09:13:21;78274.75;;;23.93;100.00
63665;BME280;49820;33.966;73.390;2023-08-08T09:15:52;78274.56;;;23.59;100.00
63665;BME280;49820;33.966;73.390;2023-08-08T09:18:23;78271.81;;;24.60;100.00
63665;BME280;49820;33.966;73.390;2023-08-08T09:20:53;78274.31;;;24.00;100.00
63665;BME280;49820;33.966;73.390;2023-08-08T09:23:22;78272.47;;;23.59;100.00
63665;BME280;49820;33.966;73.390;2023-08-08T09:25:51;78254.34;;;23.56;100.00
63665;BME280;49820;33.966;73.390;2023-08-08T09:28:21;78264.50;;;23.66;100.00
63665;BME280;49820;33.966;73.390;2023-08-08T09:30:50;78276.06;;;23.67;100.00
63665;BME280;49820;33.966;73.390;2023-08-08T09:33:19;78247.59;;;23.55;100.00
63665;BME280;49820;33.966;73.390;2023-08-08T09:35:49;78267.06;;;23.68;100.00
63665;BME280;49820;33.966;73.390;2023-08-08T09:38:19;78261.41;;;23.34;100.00
63665;BME280;49820;33.966;73.390;2023-08-08T09:40:50;78255.91;;;23.06;100.00
63665;BME280;49820;33.966;73.390;2023-08-08T09:43:24;78249.59;;;23.18;100.00
63665;BME280;49820;33.966;73.390;2023-08-08T09:45:55;78261.47;;;24.43;100.00
63665;BME280;49820;33.966;73.390;2023-08-08T09:48:35;78265.38;;;25.34;100.00
63665;BME280;49820;33.966;73.390;2023-08-08T09:51:13;78272.44;;;24.52;100.00
63665;BME280;49820;33.966;73.390;2023-08-08T09:53:44;78251.88;;;24.08;100.00
63665;BME280;49820;33.966;73.390;2023-08-08T09:56:16;78280.06;;;23.95;100.00
63665;BME280;49820;33.966;73.390;2023-08-08T09:58:47;78268.63;;;23.93;100.00
63665;BME280;49820;33.966;73.390;2023-08-08T10:01:17;78258.16;;;23.78;100.00
63665;BME280;49820;33.966;73.390;2023-08-08T10:03:48;78255.97;;;23.89;100.00
63665;BME280;49820;33.966;73.390;2023-08-08T10:06:20;78270.63;;;23.47;100.00
63665;BME280;49820;33.966;73.390;2023-08-08T10:08:50;78278.94;;;23.65;100.00
63665;BME280;49820;33.966;73.390;2023-08-08T10:11:22;78248.34;;;23.73;100.00
63665;BME280;49820;33.966;73.390;2023-08-08T10:13:53;78257.41;;;24.25;100.00
63665;BME280;49820;33.966;73.390;2023-08-08T10:16:22;78244.63;;;25.29;100.00
63665;BME280;49820;33.966;73.390;2023-08-08T10:19:03;78271.63;;;25.24;100.00
63665;BME280;49820;33.966;73.390;2023-08-08T10:21:35;78263.34;;;24.90;100.00
63665;BME280;49820;33.966;73.390;2023-08-08T10:24:06;78252.00;;;25.56;100.00
63665;BME280;49820;33.966;73.390;2023-08-08T10:26:59;78272.63;;;25.72;98.10
63665;BME280;49820;33.966;73.390;2023-08-08T10:29:32;78270.31;;;25.06;100.00
63665;BME280;49820;33.966;73.390;2023-08-08T10:32:06;78269.88;;;25.55;100.00
63665;BME280;49820;33.966;73.390;2023-08-08T10:34:43;78269.03;;;25.14;100.00
63665;BME280;49820;33.966;73.390;2023-08-08T10:37:17;78271.78;;;24.96;100.00
63665;BME280;49820;33.966;73.390;2023-08-08T10:40:00;78269.16;;;24.32;100.00
63665;BME280;49820;33.966;73.390;2023-08-08T10:42:29;78268.53;;;24.04;100.00
63665;BME280;49820;33.966;73.390;2023-08-08T10:45:02;78281.16;;;23.90;100.00
63665;BME280;49820;33.966;73.390;2023-08-08T10:47:34;78263.13;;;23.84;100.00
63665;BME280;49820;33.966;73.390;2023-08-08T10:50:11;78262.56;;;23.65;100.00
63665;BME280;49820;33.966;73.390;2023-08-08T10:52:53;78274.13;;;24.29;100.00
63665;BME280;49820;33.966;73.390;2023-08-08T10:55:27;78275.00;;;23.81;100.00
63665;BME280;49820;33.966;73.390;2023-08-08T10:58:05;78272.41;;;24.43;100.00
63665;BME280;49820;33.966;73.390;2023-08-08T11:00:37;78273.66;;;23.99;100.00
63665;BME280;49820;33.966;73.390;2023-08-08T11:03:10;78253.91;;;23.43;100.00
63665;BME280;49820;33.966;73.390;2023-08-08T11:05:38;78263.31;;;23.35;100.00
63665;BME280;49820;33.966;73.390;2023-08-08T11:08:08;78252.59;;;23.14;100.00
63665;BME280;49820;33.966;73.390;2023-08-08T11:10:39;78274.47;;;23.23;100.00
63665;BME280;49820;33.966;73.390;2023-08-08T11:13:09;78259.44;;;23.51;100.00
63665;BME280;49820;33.966;73.390;2023-08-08T11:15:39;78268.09;;;23.26;100.00
63665;BME280;49820;33.966;73.390;2023-08-08T11:18:08;78248.88;;;22.90;100.00
63665;BME280;49820;33.966;73.390;2023-08-08T11:20:42;78272.25;;;22.87;100.00
63665;BME280;49820;33.966;73.390;2023-08-08T11:23:13;78275.66;;;23.53;100.00
63665;BME280;49820;33.966;73.390;2023-08-08T11:25:44;78280.59;;;23.79;100.00
63665;BME280;49820;33.966;73.390;2023-08-08T11:28:13;78283.19;;;23.81;100.00
63665;BME280;49820;33.966;73.390;2023-08-08T11:30:46;78268.41;;;24.51;100.00
63665;BME280;49820;33.966;73.390;2023-08-08T11:33:15;78268.03;;;24.01;100.00
63665;BME280;49820;33.966;73.390;2023-08-08T11:35:46;78258.25;;;23.20;100.00
63665;BME280;49820;33.966;73.390;2023-08-08T11:38:17;78275.38;;;23.19;100.00
63665;BME280;49820;33.966;73.390;2023-08-08T11:40:47;78280.56;;;23.04;100.00
63665;BME280;49820;33.966;73.390;2023-08-08T11:43:17;78253.09;;;22.59;100.00
63665;BME280;49820;33.966;73.390;2023-08-08T11:45:50;78276.44;;;22.56;100.00
63665;BME280;49820;33.966;73.390;2023-08-08T11:48:26;78269.72;;;22.55;100.00
63665;BME280;49820;33.966;73.390;2023-08-08T11:50:56;78270.09;;;22.78;100.00
63665;BME280;49820;33.966;73.390;2023-08-08T11:53:27;78276.34;;;22.96;100.00
63665;BME280;49820;33.966;73.390;2023-08-08T11:55:57;78269.06;;;22.73;100.00
63665;BME280;49820;33.966;73.390;2023-08-08T11:58:28;78276.97;;;22.58;100.00
63665;BME280;49820;33.966;73.390;2023-08-08T12:01:10;78276.69;;;22.32;100.00
63665;BME280;49820;33.966;73.390;2023-08-08T12:03:51;78261.69;;;22.03;100.00
63665;BME280;49820;33.966;73.390;2023-08-08T12:06:37;78255.47;;;21.94;100.00
63665;BME280;49820;33.966;73.390;2023-08-08T12:09:19;78257.25;;;21.68;100.00
63665;BME280;49820;33.966;73.390;2023-08-08T12:12:01;78267.06;;;21.74;100.00
63665;BME280;49820;33.966;73.390;2023-08-08T12:14:44;78284.09;;;21.63;100.00
63665;BME280;49820;33.966;73.390;2023-08-08T12:17:34;78274.13;;;21.60;100.00
63665;BME280;49820;33.966;73.390;2023-08-08T12:20:07;78272.47;;;21.54;100.00
63665;BME280;49820;33.966;73.390;2023-08-08T12:22:41;78282.06;;;21.83;100.00
63665;BME280;49820;33.966;73.390;2023-08-08T12:25:13;78289.03;;;21.91;100.00
63665;BME280;49820;33.966;73.390;2023-08-08T12:27:45;78270.97;;;21.66;100.00
63665;BME280;49820;33.966;73.390;2023-08-08T12:30:22;78259.34;;;21.57;100.00
63665;BME280;49820;33.966;73.390;2023-08-08T12:32:53;78266.47;;;21.62;100.00
63665;BME280;49820;33.966;73.390;2023-08-08T12:35:22;78288.88;;;21.63;100.00
63665;BME280;49820;33.966;73.390;2023-08-08T12:37:51;78286.63;;;21.76;100.00
63665;BME280;49820;33.966;73.390;2023-08-08T12:40:20;78290.63;;;21.77;100.00
63665;BME280;49820;33.966;73.390;2023-08-08T12:42:49;78275.19;;;21.54;100.00
63665;BME280;49820;33.966;73.390;2023-08-08T12:45:19;78285.41;;;21.54;100.00
63665;BME280;49820;33.966;73.390;2023-08-08T12:47:48;78298.38;;;21.32;100.00
63665;BME280;49820;33.966;73.390;2023-08-08T12:50:17;78295.81;;;21.19;100.00
63665;BME280;49820;33.966;73.390;2023-08-08T12:52:47;78310.28;;;21.26;100.00
63665;BME280;49820;33.966;73.390;2023-08-08T12:55:16;78290.63;;;21.15;100.00
63665;BME280;49820;33.966;73.390;2023-08-08T12:57:48;78277.56;;;21.07;100.00
63665;BME280;49820;33.966;73.390;2023-08-08T13:00:17;78310.56;;;21.22;100.00
63665;BME280;49820;33.966;73.390;2023-08-08T13:02:46;78288.19;;;20.90;100.00
63665;BME280;49820;33.966;73.390;2023-08-08T13:05:16;78305.13;;;20.80;100.00
63665;BME280;49820;33.966;73.390;2023-08-08T13:07:45;78313.25;;;20.80;100.00
63665;BME280;49820;33.966;73.390;2023-08-08T13:10:14;78281.72;;;20.42;100.00
63665;BME280;49820;33.966;73.390;2023-08-08T13:12:43;78320.59;;;20.49;100.00
63665;BME280;49820;33.966;73.390;2023-08-08T13:15:12;78298.41;;;20.13;100.00
63665;BME280;49820;33.966;73.390;2023-08-08T13:17:42;78322.22;;;20.23;100.00
63665;BME280;49820;33.966;73.390;2023-08-08T13:20:11;78334.59;;;20.20;100.00
63665;BME280;49820;33.966;73.390;2023-08-08T13:22:42;78326.56;;;20.07;100.00
63665;BME280;49820;33.966;73.390;2023-08-08T13:25:12;78311.00;;;19.85;100.00
63665;BME280;49820;33.966;73.390;2023-08-08T13:27:42;78315.25;;;19.81;100.00
63665;BME280;49820;33.966;73.390;2023-08-08T13:30:12;78313.28;;;19.69;100.00
63665;BME280;49820;33.966;73.390;2023-08-08T13:32:47;78322.16;;;19.68;100.00
63665;BME280;49820;33.966;73.390;2023-08-08T13:35:16;78325.75;;;19.64;100.00
63665;BME280;49820;33.966;73.390;2023-08-08T13:37:46;78335.78;;;19.55;100.00
63665;BME280;49820;33.966;73.390;2023-08-08T13:40:19;78325.06;;;19.53;100.00
63665;BME280;49820;33.966;73.390;2023-08-08T13:42:48;78339.41;;;19.62;100.00
63665;BME280;49820;33.966;73.390;2023-08-08T13:45:20;78326.94;;;19.44;100.00
63665;BME280;49820;33.966;73.390;2023-08-08T13:47:51;78335.13;;;19.31;100.00
63665;BME280;49820;33.966;73.390;2023-08-08T13:50:20;78352.84;;;19.41;100.00
63665;BME280;49820;33.966;73.390;2023-08-08T13:52:49;78350.78;;;19.41;100.00
63665;BME280;49820;33.966;73.390;2023-08-08T13:55:18;78361.97;;;19.35;100.00
63665;BME280;49820;33.966;73.390;2023-08-08T13:57:47;78344.63;;;19.20;100.00
63665;BME280;49820;33.966;73.390;2023-08-08T14:00:16;78361.97;;;19.35;100.00
63665;BME280;49820;33.966;73.390;2023-08-08T14:02:48;78359.94;;;19.36;100.00
63665;BME280;49820;33.966;73.390;2023-08-08T14:05:21;78362.22;;;19.31;100.00
63665;BME280;49820;33.966;73.390;2023-08-08T14:07:53;78344.13;;;19.04;100.00
63665;BME280;49820;33.966;73.390;2023-08-08T14:10:29;78370.94;;;19.21;100.00
63665;BME280;49820;33.966;73.390;2023-08-08T14:12:57;78377.09;;;19.20;100.00
63665;BME280;49820;33.966;73.390;2023-08-08T14:15:27;78364.72;;;18.99;100.00
63665;BME280;49820;33.966;73.390;2023-08-08T14:18:06;78394.22;;;19.16;100.00
63665;BME280;49820;33.966;73.390;2023-08-08T14:20:36;78358.25;;;18.94;100.00
63665;BME280;49820;33.966;73.390;2023-08-08T14:23:07;78387.50;;;19.15;100.00
63665;BME280;49820;33.966;73.390;2023-08-08T16:52:11;78512.66;;;17.89;100.00
63665;BME280;49820;33.966;73.390;2023-08-08T16:54:54;78511.66;;;17.82;100.00
63665;BME280;49820;33.966;73.390;2023-08-08T16:57:25;78508.81;;;17.71;100.00
63665;BME280;49820;33.966;73.390;2023-08-08T17:00:07;78524.19;;;17.75;100.00
63665;BME280;49820;33.966;73.390;2023-08-08T17:02:37;78522.53;;;17.67;100.00
63665;BME280;49820;33.966;73.390;2023-08-08T17:05:10;78516.31;;;17.56;100.00
63665;BME280;49820;33.966;73.390;2023-08-08T17:07:42;78517.97;;;17.64;100.00
63665;BME280;49820;33.966;73.390;2023-08-08T17:10:12;78528.78;;;17.64;100.00
63665;BME280;49820;33.966;73.390;2023-08-08T17:12:42;78522.81;;;17.61;100.00
63665;BME280;49820;33.966;73.390;2023-08-08T17:15:12;78526.47;;;17.55;100.00
63665;BME280;49820;33.966;73.390;2023-08-08T17:17:41;78519.09;;;17.54;100.00
63665;BME280;49820;33.966;73.390;2023-08-08T17:20:17;78518.75;;;17.47;100.00
63665;BME280;49820;33.966;73.390;2023-08-08T17:22:46;78506.41;;;17.38;100.00
63665;BME280;49820;33.966;73.390;2023-08-08T17:25:17;78526.13;;;17.49;100.00
63665;BME280;49820;33.966;73.390;2023-08-08T17:27:48;78529.81;;;17.56;100.00
63665;BME280;49820;33.966;73.390;2023-08-08T17:30:28;78524.78;;;17.63;100.00
63665;BME280;49820;33.966;73.390;2023-08-08T17:32:59;78529.47;;;17.77;100.00
63665;BME280;49820;33.966;73.390;2023-08-08T17:35:28;78514.47;;;17.80;100.00
63665;BME280;49820;33.966;73.390;2023-08-08T17:37:58;78520.53;;;17.93;100.00
63665;BME280;49820;33.966;73.390;2023-08-08T17:40:27;78521.25;;;18.06;100.00
63665;BME280;49820;33.966;73.390;2023-08-08T17:42:57;78502.50;;;18.02;100.00
63665;BME280;49820;33.966;73.390;2023-08-08T17:45:27;78488.09;;;17.93;100.00
63665;BME280;49820;33.966;73.390;2023-08-08T17:47:56;78510.00;;;18.14;100.00
63665;BME280;49820;33.966;73.390;2023-08-08T17:50:26;78494.84;;;18.07;100.00
63665;BME280;49820;33.966;73.390;2023-08-08T17:52:56;78512.72;;;18.14;100.00
63665;BME280;49820;33.966;73.390;2023-08-08T17:55:25;78517.88;;;18.06;100.00
63665;BME280;49820;33.966;73.390;2023-08-08T17:57:54;78491.53;;;17.79;100.00
63665;BME280;49820;33.966;73.390;2023-08-08T18:00:24;78521.44;;;18.02;100.00
63665;BME280;49820;33.966;73.390;2023-08-08T18:02:54;78517.66;;;17.97;100.00
63665;BME280;49820;33.966;73.390;2023-08-08T18:05:24;78517.97;;;17.91;100.00
63665;BME280;49820;33.966;73.390;2023-08-08T18:07:53;78524.22;;;17.87;100.00
63665;BME280;49820;33.966;73.390;2023-08-08T18:10:23;78500.72;;;17.71;100.00
63665;BME280;49820;33.966;73.390;2023-08-08T18:12:52;78519.13;;;17.81;100.00
63665;BME280;49820;33.966;73.390;2023-08-08T18:15:23;78506.66;;;17.74;100.00
63665;BME280;49820;33.966;73.390;2023-08-08T18:17:52;78515.22;;;17.78;100.00
63665;BME280;49820;33.966;73.390;2023-08-08T18:20:21;78516.59;;;17.77;100.00